sensor_id;sensor_type;location;lat;lon;timestamp;pressure;altitude;pressure_sealevel;temperature
77414;BMP280;66486;49.992;19.164;2024-02-04T00:00:18;98706.69;;;8.25
77414;BMP280;66486;49.992;19.164;2024-02-04T00:03:04;98705.53;;;8.26
77414;BMP280;66486;49.992;19.164;2024-02-04T00:05:30;98705.09;;;8.31
77414;BMP280;66486;49.992;19.164;2024-02-04T00:07:56;98690.59;;;8.25
77414;BMP280;66486;49.992;19.164;2024-02-04T00:10:22;98690.34;;;8.12
77414;BMP280;66486;49.992;19.164;2024-02-04T00:12:48;98689.19;;;8.13
77414;BMP280;66486;49.992;19.164;2024-02-04T00:15:14;98678.84;;;8.16
77414;BMP280;66486;49.992;19.164;2024-02-04T00:17:40;98676.16;;;8.16
77414;BMP280;66486;49.992;19.164;2024-02-04T00:20:07;98673.81;;;8.18
77414;BMP280;66486;49.992;19.164;2024-02-04T00:22:33;98672.75;;;8.11
77414;BMP280;66486;49.992;19.164;2024-02-04T00:25:00;98675.31;;;8.22
77414;BMP280;66486;49.992;19.164;2024-02-04T00:27:37;98655.66;;;7.98
77414;BMP280;66486;49.992;19.164;2024-02-04T00:30:04;98641.81;;;8.03
77414;BMP280;66486;49.992;19.164;2024-02-04T00:32:30;98637.34;;;7.93
77414;BMP280;66486;49.992;19.164;2024-02-04T00:34:56;98639.16;;;8.03
77414;BMP280;66486;49.992;19.164;2024-02-04T00:37:22;98655.88;;;8.14
77414;BMP280;66486;49.992;19.164;2024-02-04T00:39:50;98659.38;;;8.08
77414;BMP280;66486;49.992;19.164;2024-02-04T00:42:16;98667.34;;;8.15
77414;BMP280;66486;49.992;19.164;2024-02-04T00:44:42;98665.38;;;8.19
77414;BMP280;66486;49.992;19.164;2024-02-04T00:47:08;98657.84;;;8.07
77414;BMP280;66486;49.992;19.164;2024-02-04T00:49:34;98663.81;;;8.22
77414;BMP280;66486;49.992;19.164;2024-02-04T00:52:03;98657.31;;;8.23
77414;BMP280;66486;49.992;19.164;2024-02-04T00:54:29;98662.25;;;8.28
77414;BMP280;66486;49.992;19.164;2024-02-04T00:56:55;98653.06;;;8.25
77414;BMP280;66486;49.992;19.164;2024-02-04T00:59:23;98649.69;;;8.18
77414;BMP280;66486;49.992;19.164;2024-02-04T01:01:49;98640.88;;;8.21
77414;BMP280;66486;49.992;19.164;2024-02-04T01:04:18;98637.81;;;8.19
77414;BMP280;66486;49.992;19.164;2024-02-04T01:06:48;98646.22;;;8.24
77414;BMP280;66486;49.992;19.164;2024-02-04T01:09:14;98623.03;;;8.41
77414;BMP280;66486;49.992;19.164;2024-02-04T01:11:40;98633.72;;;8.44
77414;BMP280;66486;49.992;19.164;2024-02-04T01:14:06;98628.56;;;8.27
77414;BMP280;66486;49.992;19.164;2024-02-04T01:16:32;98624.31;;;8.29
77414;BMP280;66486;49.992;19.164;2024-02-04T01:18:58;98634.22;;;8.32
77414;BMP280;66486;49.992;19.164;2024-02-04T01:21:24;98642.94;;;8.40
77414;BMP280;66486;49.992;19.164;2024-02-04T01:23:51;98643.69;;;8.44
77414;BMP280;66486;49.992;19.164;2024-02-04T01:26:17;98645.25;;;8.41
77414;BMP280;66486;49.992;19.164;2024-02-04T01:28:43;98656.72;;;8.42
77414;BMP280;66486;49.992;19.164;2024-02-04T01:31:22;98652.09;;;8.46
77414;BMP280;66486;49.992;19.164;2024-02-04T01:33:51;98654.31;;;8.51
77414;BMP280;66486;49.992;19.164;2024-02-04T01:36:21;98655.31;;;8.64
77414;BMP280;66486;49.992;19.164;2024-02-04T01:38:56;98641.25;;;8.56
77414;BMP280;66486;49.992;19.164;2024-02-04T01:41:23;98629.00;;;8.55
77414;BMP280;66486;49.992;19.164;2024-02-04T01:43:52;98636.41;;;8.44
77414;BMP280;66486;49.992;19.164;2024-02-04T01:46:18;98622.75;;;8.35
77414;BMP280;66486;49.992;19.164;2024-02-04T01:48:44;98626.97;;;8.29
77414;BMP280;66486;49.992;19.164;2024-02-04T01:51:13;98639.56;;;8.36
77414;BMP280;66486;49.992;19.164;2024-02-04T01:53:42;98631.94;;;8.34
77414;BMP280;66486;49.992;19.164;2024-02-04T01:56:10;98639.56;;;8.36
77414;BMP280;66486;49.992;19.164;2024-02-04T01:58:46;98633.41;;;8.39
77414;BMP280;66486;49.992;19.164;2024-02-04T02:01:12;98625.31;;;8.42
77414;BMP280;66486;49.992;19.164;2024-02-04T02:03:39;98630.69;;;8.42
77414;BMP280;66486;49.992;19.164;2024-02-04T02:06:06;98626.06;;;8.46
77414;BMP280;66486;49.992;19.164;2024-02-04T02:08:35;98627.22;;;8.45
77414;BMP280;66486;49.992;19.164;2024-02-04T02:11:21;98634.03;;;8.50
77414;BMP280;66486;49.992;19.164;2024-02-04T02:13:54;98633.66;;;8.48
77414;BMP280;66486;49.992;19.164;2024-02-04T02:16:24;98629.53;;;8.40
77414;BMP280;66486;49.992;19.164;2024-02-04T02:22:12;98640.25;;;8.40
77414;BMP280;66486;49.992;19.164;2024-02-04T02:24:42;98639.91;;;8.38
77414;BMP280;66486;49.992;19.164;2024-02-04T02:27:08;98639.56;;;8.36
77414;BMP280;66486;49.992;19.164;2024-02-04T02:29:34;98639.50;;;8.43
77414;BMP280;66486;49.992;19.164;2024-02-04T02:32:02;98626.84;;;8.40
77414;BMP280;66486;49.992;19.164;2024-02-04T02:34:31;98639.56;;;8.36
77414;BMP280;66486;49.992;19.164;2024-02-04T02:37:27;98628.56;;;8.27
77414;BMP280;66486;49.992;19.164;2024-02-04T02:40:01;98619.59;;;8.40
77414;BMP280;66486;49.992;19.164;2024-02-04T02:42:30;98626.50;;;8.38
77414;BMP280;66486;49.992;19.164;2024-02-04T02:44:57;98620.13;;;8.28
77414;BMP280;66486;49.992;19.164;2024-02-04T02:47:24;98621.97;;;8.35
77414;BMP280;66486;49.992;19.164;2024-02-04T02:49:52;98633.84;;;8.34
77414;BMP280;66486;49.992;19.164;2024-02-04T02:52:22;98651.97;;;8.23
77414;BMP280;66486;49.992;19.164;2024-02-04T02:54:52;98655.28;;;8.34
77414;BMP280;66486;49.992;19.164;2024-02-04T02:57:18;98647.75;;;8.22
77414;BMP280;66486;49.992;19.164;2024-02-04T02:59:44;98647.84;;;8.11
77414;BMP280;66486;49.992;19.164;2024-02-04T03:02:10;98660.84;;;8.16
77414;BMP280;66486;49.992;19.164;2024-02-04T03:04:39;98676.94;;;8.12
77414;BMP280;66486;49.992;19.164;2024-02-04T03:07:05;98678.19;;;8.04
77414;BMP280;66486;49.992;19.164;2024-02-04T03:09:33;98692.72;;;8.03
77414;BMP280;66486;49.992;19.164;2024-02-04T03:12:02;98711.97;;;7.91
77414;BMP280;66486;49.992;19.164;2024-02-04T03:14:32;98712.72;;;7.88
77414;BMP280;66486;49.992;19.164;2024-02-04T03:17:02;98713.97;;;7.84
77414;BMP280;66486;49.992;19.164;2024-02-04T03:19:29;98707.41;;;7.85
77414;BMP280;66486;49.992;19.164;2024-02-04T03:21:58;98684.91;;;7.79
77414;BMP280;66486;49.992;19.164;2024-02-04T03:24:33;98684.53;;;7.80
77414;BMP280;66486;49.992;19.164;2024-02-04T03:26:59;98675.78;;;7.73
77414;BMP280;66486;49.992;19.164;2024-02-04T03:29:34;98681.44;;;7.78
77414;BMP280;66486;49.992;19.164;2024-02-04T03:32:07;98677.91;;;7.88
77414;BMP280;66486;49.992;19.164;2024-02-04T03:34:37;98677.91;;;7.92
77414;BMP280;66486;49.992;19.164;2024-02-04T03:37:09;98681.09;;;7.76
77414;BMP280;66486;49.992;19.164;2024-02-04T03:39:35;98687.19;;;7.80
77414;BMP280;66486;49.992;19.164;2024-02-04T03:42:02;98681.06;;;7.83
77414;BMP280;66486;49.992;19.164;2024-02-04T03:44:28;98688.78;;;7.71
77414;BMP280;66486;49.992;19.164;2024-02-04T03:46:54;98684.16;;;7.75
77414;BMP280;66486;49.992;19.164;2024-02-04T03:49:21;98683.00;;;7.76
77414;BMP280;66486;49.992;19.164;2024-02-04T03:51:47;98660.59;;;7.55
77414;BMP280;66486;49.992;19.164;2024-02-04T03:54:13;98653.66;;;7.65
77414;BMP280;66486;49.992;19.164;2024-02-04T03:56:39;98654.50;;;7.55
77414;BMP280;66486;49.992;19.164;2024-02-04T03:59:08;98654.53;;;7.48
77414;BMP280;66486;49.992;19.164;2024-02-04T04:01:37;98645.31;;;7.52
77414;BMP280;66486;49.992;19.164;2024-02-04T04:04:04;98649.63;;;7.43
77414;BMP280;66486;49.992;19.164;2024-02-04T04:06:34;98646.91;;;7.50
77414;BMP280;66486;49.992;19.164;2024-02-04T04:09:05;98653.34;;;7.56
77414;BMP280;66486;49.992;19.164;2024-02-04T04:11:32;98658.41;;;7.43
77414;BMP280;66486;49.992;19.164;2024-02-04T04:13:58;98653.47;;;7.38
77414;BMP280;66486;49.992;19.164;2024-02-04T04:16:25;98638.53;;;7.41
77414;BMP280;66486;49.992;19.164;2024-02-04T04:18:51;98651.50;;;7.46
77414;BMP280;66486;49.992;19.164;2024-02-04T04:21:18;98655.78;;;7.40
77414;BMP280;66486;49.992;19.164;2024-02-04T04:23:44;98649.66;;;7.39
77414;BMP280;66486;49.992;19.164;2024-02-04T04:26:11;98654.19;;;7.46
77414;BMP280;66486;49.992;19.164;2024-02-04T04:28:38;98656.91;;;7.39
77414;BMP280;66486;49.992;19.164;2024-02-04T04:31:04;98656.91;;;7.39
77414;BMP280;66486;49.992;19.164;2024-02-04T04:33:31;98661.44;;;7.45
77414;BMP280;66486;49.992;19.164;2024-02-04T04:35:58;98658.03;;;7.41
77414;BMP280;66486;49.992;19.164;2024-02-04T04:38:24;98653.06;;;7.43
77414;BMP280;66486;49.992;19.164;2024-02-04T04:40:51;98663.28;;;7.52
77414;BMP280;66486;49.992;19.164;2024-02-04T04:43:17;98647.31;;;7.41
77414;BMP280;66486;49.992;19.164;2024-02-04T04:45:44;98645.41;;;7.42
77414;BMP280;66486;49.992;19.164;2024-02-04T04:48:13;98641.88;;;7.52
77414;BMP280;66486;49.992;19.164;2024-02-04T04:50:39;98634.25;;;7.54
77414;BMP280;66486;49.992;19.164;2024-02-04T04:53:06;98635.09;;;7.44
77414;BMP280;66486;49.992;19.164;2024-02-04T04:55:33;98627.03;;;7.51
77414;BMP280;66486;49.992;19.164;2024-02-04T04:58:02;98630.06;;;7.49
77414;BMP280;66486;49.992;19.164;2024-02-04T05:00:29;98631.63;;;7.47
77414;BMP280;66486;49.992;19.164;2024-02-04T05:02:55;98640.69;;;7.60
77414;BMP280;66486;49.992;19.164;2024-02-04T05:05:22;98642.94;;;7.65
77414;BMP280;66486;49.992;19.164;2024-02-04T05:07:48;98656.47;;;7.51
77414;BMP280;66486;49.992;19.164;2024-02-04T05:10:15;98648.44;;;7.51
77414;BMP280;66486;49.992;19.164;2024-02-04T05:12:41;98637.75;;;7.47
77414;BMP280;66486;49.992;19.164;2024-02-04T05:15:12;98648.03;;;7.49
77414;BMP280;66486;49.992;19.164;2024-02-04T05:17:41;98656.03;;;7.52
77414;BMP280;66486;49.992;19.164;2024-02-04T05:20:08;98646.75;;;7.68
77414;BMP280;66486;49.992;19.164;2024-02-04T05:22:35;98652.88;;;7.65
77414;BMP280;66486;49.992;19.164;2024-02-04T05:25:01;98656.75;;;7.60
77414;BMP280;66486;49.992;19.164;2024-02-04T05:27:28;98665.47;;;7.68
77414;BMP280;66486;49.992;19.164;2024-02-04T05:29:55;98676.56;;;7.73
77414;BMP280;66486;49.992;19.164;2024-02-04T05:32:21;98670.72;;;7.82
77414;BMP280;66486;49.992;19.164;2024-02-04T05:34:48;98692.19;;;7.75
77414;BMP280;66486;49.992;19.164;2024-02-04T05:37:14;98686.72;;;7.89
77414;BMP280;66486;49.992;19.164;2024-02-04T05:39:41;98687.19;;;7.80
77414;BMP280;66486;49.992;19.164;2024-02-04T05:42:07;98701.00;;;7.75
77414;BMP280;66486;49.992;19.164;2024-02-04T05:44:37;98687.59;;;7.75
77414;BMP280;66486;49.992;19.164;2024-02-04T05:47:03;98696.38;;;7.79
77414;BMP280;66486;49.992;19.164;2024-02-04T05:49:32;98707.91;;;7.73
77414;BMP280;66486;49.992;19.164;2024-02-04T05:51:59;98715.56;;;7.71
77414;BMP280;66486;49.992;19.164;2024-02-04T05:54:25;98728.50;;;7.79
77414;BMP280;66486;49.992;19.164;2024-02-04T05:56:54;98718.63;;;7.73
77414;BMP280;66486;49.992;19.164;2024-02-04T05:59:21;98706.75;;;7.70
77414;BMP280;66486;49.992;19.164;2024-02-04T06:01:47;98706.84;;;7.60
77414;BMP280;66486;49.992;19.164;2024-02-04T06:04:13;98715.69;;;7.53
77414;BMP280;66486;49.992;19.164;2024-02-04T06:06:40;98701.84;;;7.65
77414;BMP280;66486;49.992;19.164;2024-02-04T06:09:12;98711.91;;;7.47
77414;BMP280;66486;49.992;19.164;2024-02-04T06:11:44;98708.88;;;7.41
77414;BMP280;66486;49.992;19.164;2024-02-04T06:14:19;98716.56;;;7.36
77414;BMP280;66486;49.992;19.164;2024-02-04T06:16:45;98703.59;;;7.31
77414;BMP280;66486;49.992;19.164;2024-02-04T06:19:32;98699.00;;;7.31
77414;BMP280;66486;49.992;19.164;2024-02-04T06:21:58;98702.06;;;7.30
77414;BMP280;66486;49.992;19.164;2024-02-04T06:24:25;98701.69;;;7.31
77414;BMP280;66486;49.992;19.164;2024-02-04T06:26:51;98705.13;;;7.28
77414;BMP280;66486;49.992;19.164;2024-02-04T06:29:17;98701.75;;;7.17
77414;BMP280;66486;49.992;19.164;2024-02-04T06:31:46;98705.56;;;7.20
77414;BMP280;66486;49.992;19.164;2024-02-04T06:34:13;98708.63;;;7.18
77414;BMP280;66486;49.992;19.164;2024-02-04T06:36:43;98701.72;;;7.28
77414;BMP280;66486;49.992;19.164;2024-02-04T06:39:13;98704.78;;;7.23
77414;BMP280;66486;49.992;19.164;2024-02-04T06:41:41;98707.75;;;7.39
77414;BMP280;66486;49.992;19.164;2024-02-04T06:44:08;98692.72;;;7.52
77414;BMP280;66486;49.992;19.164;2024-02-04T06:46:37;98703.19;;;7.36
77414;BMP280;66486;49.992;19.164;2024-02-04T06:49:04;98686.31;;;7.42
77414;BMP280;66486;49.992;19.164;2024-02-04T06:51:31;98703.41;;;7.55
77414;BMP280;66486;49.992;19.164;2024-02-04T06:54:00;98693.97;;;7.44
77414;BMP280;66486;49.992;19.164;2024-02-04T06:56:27;98693.94;;;7.47
77414;BMP280;66486;49.992;19.164;2024-02-04T06:58:53;98709.25;;;7.43
77414;BMP280;66486;49.992;19.164;2024-02-04T07:01:19;98701.59;;;7.45
77414;BMP280;66486;49.992;19.164;2024-02-04T07:03:45;98708.38;;;7.61
77414;BMP280;66486;49.992;19.164;2024-02-04T07:06:11;98704.66;;;7.44
77414;BMP280;66486;49.992;19.164;2024-02-04T07:08:38;98712.53;;;7.65
77414;BMP280;66486;49.992;19.164;2024-02-04T07:11:04;98708.72;;;7.70
77414;BMP280;66486;49.992;19.164;2024-02-04T07:13:30;98720.16;;;7.70
77414;BMP280;66486;49.992;19.164;2024-02-04T07:15:57;98713.34;;;7.62
77414;BMP280;66486;49.992;19.164;2024-02-04T07:18:23;98708.75;;;7.63
77414;BMP280;66486;49.992;19.164;2024-02-04T07:20:50;98711.09;;;7.53
77414;BMP280;66486;49.992;19.164;2024-02-04T07:23:16;98721.84;;;7.50
77414;BMP280;66486;49.992;19.164;2024-02-04T07:25:42;98728.28;;;7.56
77414;BMP280;66486;49.992;19.164;2024-02-04T07:28:09;98723.22;;;7.69
77414;BMP280;66486;49.992;19.164;2024-02-04T07:30:35;98734.72;;;7.66
77414;BMP280;66486;49.992;19.164;2024-02-04T07:33:02;98722.16;;;7.59
77414;BMP280;66486;49.992;19.164;2024-02-04T07:35:28;98721.41;;;7.51
77414;BMP280;66486;49.992;19.164;2024-02-04T07:37:54;98726.78;;;7.55
77414;BMP280;66486;49.992;19.164;2024-02-04T07:40:20;98731.34;;;7.54
77414;BMP280;66486;49.992;19.164;2024-02-04T07:42:47;98743.56;;;7.59
77414;BMP280;66486;49.992;19.164;2024-02-04T07:45:13;98728.28;;;7.52
77414;BMP280;66486;49.992;19.164;2024-02-04T07:47:39;98741.03;;;7.38
77414;BMP280;66486;49.992;19.164;2024-02-04T07:50:05;98719.63;;;7.31
77414;BMP280;66486;49.992;19.164;2024-02-04T07:52:32;98730.75;;;7.22
77414;BMP280;66486;49.992;19.164;2024-02-04T07:55:01;98756.38;;;7.23
77414;BMP280;66486;49.992;19.164;2024-02-04T07:57:27;98762.53;;;7.13
77414;BMP280;66486;49.992;19.164;2024-02-04T07:59:53;98761.00;;;7.16
77414;BMP280;66486;49.992;19.164;2024-02-04T08:02:19;98767.84;;;7.20
77414;BMP280;66486;49.992;19.164;2024-02-04T08:04:45;98770.97;;;7.05
77414;BMP280;66486;49.992;19.164;2024-02-04T08:07:12;98755.34;;;6.96
77414;BMP280;66486;49.992;19.164;2024-02-04T08:09:38;98732.84;;;6.86
77414;BMP280;66486;49.992;19.164;2024-02-04T08:12:07;98728.97;;;7.02
77414;BMP280;66486;49.992;19.164;2024-02-04T08:14:33;98729.69;;;7.16
77414;BMP280;66486;49.992;19.164;2024-02-04T08:17:00;98733.94;;;7.03
77414;BMP280;66486;49.992;19.164;2024-02-04T08:19:27;98741.97;;;6.96
77414;BMP280;66486;49.992;19.164;2024-02-04T08:21:54;98740.78;;;7.15
77414;BMP280;66486;49.992;19.164;2024-02-04T08:24:20;98748.41;;;7.13
77414;BMP280;66486;49.992;19.164;2024-02-04T08:26:47;98757.97;;;7.07
77414;BMP280;66486;49.992;19.164;2024-02-04T08:29:13;98746.56;;;6.99
77414;BMP280;66486;49.992;19.164;2024-02-04T08:31:40;98756.88;;;6.93
77414;BMP280;66486;49.992;19.164;2024-02-04T08:34:06;98745.84;;;6.88
77414;BMP280;66486;49.992;19.164;2024-02-04T08:36:33;98749.66;;;6.83
77414;BMP280;66486;49.992;19.164;2024-02-04T08:38:59;98732.47;;;6.91
77414;BMP280;66486;49.992;19.164;2024-02-04T08:41:26;98742.28;;;7.09
77414;BMP280;66486;49.992;19.164;2024-02-04T08:43:52;98723.56;;;7.09
77414;BMP280;66486;49.992;19.164;2024-02-04T08:46:19;98727.00;;;7.16
77414;BMP280;66486;49.992;19.164;2024-02-04T08:48:45;98728.91;;;7.12
77414;BMP280;66486;49.992;19.164;2024-02-04T08:51:12;98711.72;;;7.10
77414;BMP280;66486;49.992;19.164;2024-02-04T08:53:42;98726.91;;;7.30
77414;BMP280;66486;49.992;19.164;2024-02-04T08:56:12;98722.22;;;7.45
77414;BMP280;66486;49.992;19.164;2024-02-04T08:58:38;98727.59;;;7.45
77414;BMP280;66486;49.992;19.164;2024-02-04T09:01:05;98726.09;;;7.40
77414;BMP280;66486;49.992;19.164;2024-02-04T09:03:31;98737.91;;;7.50
77414;BMP280;66486;49.992;19.164;2024-02-04T09:05:57;98724.09;;;7.59
77414;BMP280;66486;49.992;19.164;2024-02-04T09:08:23;98722.91;;;7.60
77414;BMP280;66486;49.992;19.164;2024-02-04T09:10:50;98724.66;;;7.84
77414;BMP280;66486;49.992;19.164;2024-02-04T09:13:15;98689.28;;;7.59
77414;BMP280;66486;49.992;19.164;2024-02-04T09:15:45;98723.44;;;7.92
77414;BMP280;66486;49.992;19.164;2024-02-04T09:18:11;98734.47;;;7.97
77414;BMP280;66486;49.992;19.164;2024-02-04T09:20:38;98731.16;;;7.83
77414;BMP280;66486;49.992;19.164;2024-02-04T09:23:04;98750.72;;;7.76
77414;BMP280;66486;49.992;19.164;2024-02-04T09:25:31;98734.13;;;7.92
77414;BMP280;66486;49.992;19.164;2024-02-04T09:27:57;98744.56;;;7.79
77414;BMP280;66486;49.992;19.164;2024-02-04T09:30:23;98739.53;;;7.85
77414;BMP280;66486;49.992;19.164;2024-02-04T09:32:49;98733.00;;;7.89
77414;BMP280;66486;49.992;19.164;2024-02-04T09:35:15;98728.44;;;7.90
77414;BMP280;66486;49.992;19.164;2024-02-04T09:37:42;98721.50;;;7.92
77414;BMP280;66486;49.992;19.164;2024-02-04T09:40:11;98715.88;;;7.80
77414;BMP280;66486;49.992;19.164;2024-02-04T09:42:38;98715.91;;;7.76
77414;BMP280;66486;49.992;19.164;2024-02-04T09:45:05;98730.25;;;7.96
77414;BMP280;66486;49.992;19.164;2024-02-04T09:47:32;98720.22;;;8.07
77414;BMP280;66486;49.992;19.164;2024-02-04T09:50:03;98711.41;;;8.07
77414;BMP280;66486;49.992;19.164;2024-02-04T09:52:29;98714.47;;;8.09
77414;BMP280;66486;49.992;19.164;2024-02-04T09:55:00;98709.75;;;8.24
77414;BMP280;66486;49.992;19.164;2024-02-04T09:57:29;98712.84;;;8.19
77414;BMP280;66486;49.992;19.164;2024-02-04T09:59:56;98710.56;;;8.21
77414;BMP280;66486;49.992;19.164;2024-02-04T10:02:22;98698.69;;;8.18
77414;BMP280;66486;49.992;19.164;2024-02-04T10:04:49;98704.88;;;8.15
77414;BMP280;66486;49.992;19.164;2024-02-04T10:07:15;98697.25;;;8.13
77414;BMP280;66486;49.992;19.164;2024-02-04T10:09:43;98698.94;;;8.34
77414;BMP280;66486;49.992;19.164;2024-02-04T10:12:09;98691.91;;;8.47
77414;BMP280;66486;49.992;19.164;2024-02-04T10:14:36;98696.28;;;8.31
77414;BMP280;66486;49.992;19.164;2024-02-04T10:17:03;98679.38;;;8.37
77414;BMP280;66486;49.992;19.164;2024-02-04T10:19:30;98674.38;;;8.39
77414;BMP280;66486;49.992;19.164;2024-02-04T10:22:00;98670.97;;;8.35
77414;BMP280;66486;49.992;19.164;2024-02-04T10:24:32;98654.84;;;8.39
77414;BMP280;66486;49.992;19.164;2024-02-04T10:26:58;98654.06;;;8.38
77414;BMP280;66486;49.992;19.164;2024-02-04T10:29:25;98642.81;;;8.50
77414;BMP280;66486;49.992;19.164;2024-02-04T10:31:57;98652.09;;;8.76
77414;BMP280;66486;49.992;19.164;2024-02-04T10:34:26;98642.44;;;8.82
77414;BMP280;66486;49.992;19.164;2024-02-04T10:36:53;98634.59;;;8.95
77414;BMP280;66486;49.992;19.164;2024-02-04T10:39:19;98641.28;;;8.83
77414;BMP280;66486;49.992;19.164;2024-02-04T10:41:49;98638.25;;;8.77
77414;BMP280;66486;49.992;19.164;2024-02-04T10:44:23;98635.53;;;8.81
77414;BMP280;66486;49.992;19.164;2024-02-04T10:46:50;98626.53;;;8.95
77414;BMP280;66486;49.992;19.164;2024-02-04T10:49:19;98626.34;;;9.09
77414;BMP280;66486;49.992;19.164;2024-02-04T10:51:45;98624.44;;;9.32
77414;BMP280;66486;49.992;19.164;2024-02-04T10:54:17;98620.50;;;9.41
77414;BMP280;66486;49.992;19.164;2024-02-04T10:56:53;98606.22;;;9.44
77414;BMP280;66486;49.992;19.164;2024-02-04T10:59:22;98615.88;;;9.41
77414;BMP280;66486;49.992;19.164;2024-02-04T11:01:48;98615.03;;;9.44
77414;BMP280;66486;49.992;19.164;2024-02-04T11:04:19;98605.47;;;9.43
77414;BMP280;66486;49.992;19.164;2024-02-04T11:06:45;98596.00;;;9.35
77414;BMP280;66486;49.992;19.164;2024-02-04T11:09:13;98588.63;;;9.43
77414;BMP280;66486;49.992;19.164;2024-02-04T11:11:40;98587.56;;;9.36
77414;BMP280;66486;49.992;19.164;2024-02-04T11:14:11;98587.44;;;9.44
77414;BMP280;66486;49.992;19.164;2024-02-04T11:25:42;98580.25;;;9.14
77414;BMP280;66486;49.992;19.164;2024-02-04T11:28:11;98564.16;;;9.14
77414;BMP280;66486;49.992;19.164;2024-02-04T11:30:37;98557.72;;;9.08
77414;BMP280;66486;49.992;19.164;2024-02-04T11:33:04;98554.75;;;9.02
77414;BMP280;66486;49.992;19.164;2024-02-04T11:35:33;98562.09;;;8.98
77414;BMP280;66486;49.992;19.164;2024-02-04T11:38:01;98562.47;;;9.00
77414;BMP280;66486;49.992;19.164;2024-02-04T11:40:37;98567.13;;;8.96
77414;BMP280;66486;49.992;19.164;2024-02-04T11:43:10;98551.84;;;8.93
77414;BMP280;66486;49.992;19.164;2024-02-04T11:45:41;98544.03;;;9.02
77414;BMP280;66486;49.992;19.164;2024-02-04T11:48:08;98531.75;;;9.05
77414;BMP280;66486;49.992;19.164;2024-02-04T11:50:34;98531.78;;;9.01
77414;BMP280;66486;49.992;19.164;2024-02-04T11:53:11;98533.13;;;9.13
77414;BMP280;66486;49.992;19.164;2024-02-04T11:55:40;98531.97;;;9.14
77414;BMP280;66486;49.992;19.164;2024-02-04T11:58:07;98508.50;;;9.18
77414;BMP280;66486;49.992;19.164;2024-02-04T12:00:34;98507.47;;;9.12
77414;BMP280;66486;49.992;19.164;2024-02-04T12:03:04;98480.44;;;8.99
77414;BMP280;66486;49.992;19.164;2024-02-04T12:05:32;98479.84;;;8.88
77414;BMP280;66486;49.992;19.164;2024-02-04T12:08:05;98476.16;;;8.82
77414;BMP280;66486;49.992;19.164;2024-02-04T12:10:36;98471.81;;;8.88
77414;BMP280;66486;49.992;19.164;2024-02-04T12:13:03;98437.69;;;8.89
77414;BMP280;66486;49.992;19.164;2024-02-04T12:15:30;98448.25;;;8.99
77414;BMP280;66486;49.992;19.164;2024-02-04T12:18:05;98450.50;;;9.04
77414;BMP280;66486;49.992;19.164;2024-02-04T12:20:32;98447.50;;;8.99
77414;BMP280;66486;49.992;19.164;2024-02-04T12:22:58;98441.81;;;8.97
77414;BMP280;66486;49.992;19.164;2024-02-04T12:25:25;98438.63;;;9.02
77414;BMP280;66486;49.992;19.164;2024-02-04T12:28:08;98426.44;;;8.97
77414;BMP280;66486;49.992;19.164;2024-02-04T12:30:35;98420.53;;;8.86
77414;BMP280;66486;49.992;19.164;2024-02-04T12:33:06;98415.97;;;8.83
77414;BMP280;66486;49.992;19.164;2024-02-04T12:35:34;98418.63;;;8.87
77414;BMP280;66486;49.992;19.164;2024-02-04T12:38:03;98419.06;;;8.82
77414;BMP280;66486;49.992;19.164;2024-02-04T12:40:33;98415.22;;;8.83
77414;BMP280;66486;49.992;19.164;2024-02-04T12:43:02;98415.16;;;8.86
77414;BMP280;66486;49.992;19.164;2024-02-04T12:45:29;98416.38;;;8.82
77414;BMP280;66486;49.992;19.164;2024-02-04T12:47:56;98405.25;;;8.83
77414;BMP280;66486;49.992;19.164;2024-02-04T12:50:24;98403.06;;;8.98
77414;BMP280;66486;49.992;19.164;2024-02-04T12:53:08;98390.06;;;8.96
77414;BMP280;66486;49.992;19.164;2024-02-04T12:55:38;98391.22;;;8.95
77414;BMP280;66486;49.992;19.164;2024-02-04T12:58:10;98392.00;;;8.96
77414;BMP280;66486;49.992;19.164;2024-02-04T13:00:44;98392.09;;;9.12
77414;BMP280;66486;49.992;19.164;2024-02-04T13:03:10;98383.41;;;9.04
77414;BMP280;66486;49.992;19.164;2024-02-04T13:05:40;98382.28;;;9.02
77414;BMP280;66486;49.992;19.164;2024-02-04T13:08:06;98360.03;;;9.05
77414;BMP280;66486;49.992;19.164;2024-02-04T13:10:36;98349.34;;;9.01
77414;BMP280;66486;49.992;19.164;2024-02-04T13:13:10;98353.69;;;9.15
77414;BMP280;66486;49.992;19.164;2024-02-04T13:15:38;98341.91;;;8.89
77414;BMP280;66486;49.992;19.164;2024-02-04T13:18:05;98335.16;;;8.81
77414;BMP280;66486;49.992;19.164;2024-02-04T13:20:32;98347.41;;;8.82
77414;BMP280;66486;49.992;19.164;2024-02-04T13:23:10;98340.47;;;8.85
77414;BMP280;66486;49.992;19.164;2024-02-04T13:25:40;98367.66;;;8.87
77414;BMP280;66486;49.992;19.164;2024-02-04T13:28:15;98404.44;;;8.86
77414;BMP280;66486;49.992;19.164;2024-02-04T13:30:57;98419.91;;;8.98
77414;BMP280;66486;49.992;19.164;2024-02-04T13:33:28;98400.09;;;8.92
77414;BMP280;66486;49.992;19.164;2024-02-04T13:36:02;98376.63;;;8.77
77414;BMP280;66486;49.992;19.164;2024-02-04T13:38:32;98389.38;;;8.69
77414;BMP280;66486;49.992;19.164;2024-02-04T13:41:05;98383.28;;;8.68
77414;BMP280;66486;49.992;19.164;2024-02-04T13:43:38;98392.19;;;8.62
77414;BMP280;66486;49.992;19.164;2024-02-04T13:46:05;98432.28;;;8.46
77414;BMP280;66486;49.992;19.164;2024-02-04T13:48:42;98452.25;;;8.41
77414;BMP280;66486;49.992;19.164;2024-02-04T13:51:16;98434.50;;;8.51
77414;BMP280;66486;49.992;19.164;2024-02-04T13:53:47;98440.84;;;8.37
77414;BMP280;66486;49.992;19.164;2024-02-04T13:56:14;98437.28;;;8.44
77414;BMP280;66486;49.992;19.164;2024-02-04T13:58:44;98423.06;;;8.47
77414;BMP280;66486;49.992;19.164;2024-02-04T14:01:18;98416.22;;;8.46
77414;BMP280;66486;49.992;19.164;2024-02-04T14:03:46;98408.50;;;8.48
77414;BMP280;66486;49.992;19.164;2024-02-04T14:06:12;98411.13;;;8.51
77414;BMP280;66486;49.992;19.164;2024-02-04T14:08:39;98404.31;;;8.47
77414;BMP280;66486;49.992;19.164;2024-02-04T14:11:05;98404.44;;;8.63
77414;BMP280;66486;49.992;19.164;2024-02-04T14:13:31;98407.47;;;8.65
77414;BMP280;66486;49.992;19.164;2024-02-04T14:15:59;98410.44;;;8.70
77414;BMP280;66486;49.992;19.164;2024-02-04T14:18:25;98397.03;;;8.47
77414;BMP280;66486;49.992;19.164;2024-02-04T14:20:52;98388.16;;;8.50
77414;BMP280;66486;49.992;19.164;2024-02-04T14:23:29;98391.72;;;8.44
77414;BMP280;66486;49.992;19.164;2024-02-04T14:26:01;98375.81;;;8.33